首页
METAR-TAF:

METAR-TAF

机场 :

Fairfield Municipal Airport

費爾菲爾德, 艾奥瓦州, 美国

纬度: 41-03N, 经度: 091-59W, 海拔: 244米

当前天气观测

该预报发布于33分钟前的00:35 UTC
风速4节,风向南转西南
温度 0°C
湿度 64%
气压 1017 hPa
能見度: 16.1公里
多云层高于3600英尺
多云层高于4300英尺
阴天层高于5000英尺

METAR: KFFL 140035Z AUTO 21004KT 10SM BKN036 BKN043 OVC050 M00/M06 A3004 RMK A01

时间: 19:08 (01:08 UTC)


TAF: 丢失

超过4000个机场的气象观测和天气预报(METAR&TAF报告)。

可查询的气象台以黄色和红色小点在地图上表示。

将鼠标移到小点上方,可查看气象台名称。

然后点击查看天气观测和预报。

如需切换地图:点击带黑十字的绿色按钮放大地图;点击带横线的绿色按钮缩小地图;或者点击绿色箭头查看邻近地区的地图。


METAR-TAF: